Terminal Aerodrome Forecast
Issued by NWS Charleston, SC

Home | Current Version | Previous Version | Text Only | Print | Product List | Glossary On
Versions: 1 2 3 4 5 6 7 8 9 10 11 12 13 14 15 16 17 18 19 20 21 22 23 24 25 26 27 28
000
FTUS42 KCHS 040700 AAB
TAFCHS
TAF AMD
KCHS 040700Z 0407/0506 VRB03KT 1/2SM FG OVC002 WS015/22035KT
      TEMPO 0407/0409 1/4SM FG VV001
     FM041000 20008KT 5SM BR SCT005 BKN015
     FM041300 22011G16KT P6SM SCT015 BKN030
     FM041800 21016G26KT P6SM SCT040=

USA.gov is the U.S. government's official web portal to all federal, state and local government web resources and services.